createdAt,value
2023-05-13T00:02:23.406Z,12.80
2023-05-13T00:05:00.876Z,12.85
2023-05-13T00:07:35.350Z,12.90
2023-05-13T00:10:08.137Z,12.87
2023-05-13T00:12:40.363Z,12.82
2023-05-13T00:15:12.134Z,12.84
2023-05-13T00:17:48.949Z,12.86
2023-05-13T00:20:22.032Z,12.83
2023-05-13T00:22:57.653Z,12.84
2023-05-13T00:25:26.993Z,12.85
2023-05-13T00:27:59.837Z,12.91
2023-05-13T00:30:34.482Z,12.89
2023-05-13T00:33:08.650Z,12.92
2023-05-13T00:35:35.856Z,12.89
2023-05-13T00:38:10.127Z,12.96
2023-05-13T00:40:42.312Z,12.94
2023-05-13T00:43:20.868Z,12.89
2023-05-13T00:45:53.570Z,12.89
2023-05-13T00:48:32.097Z,12.80
2023-05-13T00:51:03.848Z,12.86
2023-05-13T00:53:35.367Z,12.82
2023-05-13T00:56:09.720Z,12.74
2023-05-13T00:58:41.364Z,12.67
2023-05-13T01:01:23.145Z,12.66
2023-05-13T01:04:28.292Z,12.57
2023-05-13T01:07:18.095Z,12.61
2023-05-13T01:10:34.523Z,12.53
2023-05-13T01:13:06.764Z,12.43
2023-05-13T01:15:43.512Z,12.31
2023-05-13T01:18:23.191Z,12.39
2023-05-13T01:20:56.193Z,12.32
2023-05-13T01:23:30.894Z,12.31
2023-05-13T01:26:05.109Z,12.22
2023-05-13T01:28:40.587Z,12.05
2023-05-13T01:31:14.012Z,12.12
2023-05-13T01:33:53.692Z,12.09
2023-05-13T01:36:20.957Z,12.03
2023-05-13T01:38:48.908Z,12.04
2023-05-13T01:41:15.802Z,12.02
2023-05-13T01:43:42.495Z,11.99
2023-05-13T01:46:12.958Z,12.01
2023-05-13T01:48:39.660Z,11.94
2023-05-13T01:51:06.729Z,11.88
2023-05-13T01:53:33.709Z,11.84
2023-05-13T01:56:00.297Z,11.86
2023-05-13T01:58:26.904Z,11.86
2023-05-13T02:00:53.510Z,11.80
2023-05-13T02:03:20.943Z,11.77
2023-05-13T02:05:48.736Z,11.70
2023-05-13T02:08:15.363Z,11.65
2023-05-13T02:10:41.988Z,11.57
2023-05-13T02:13:08.765Z,11.62
2023-05-13T02:15:35.582Z,11.54
2023-05-13T02:18:02.290Z,11.41
2023-05-13T02:20:28.973Z,11.49
2023-05-13T02:22:55.630Z,11.40
2023-05-13T02:25:22.380Z,11.41
2023-05-13T02:27:49.003Z,11.42
2023-05-13T02:30:16.088Z,11.50
2023-05-13T02:32:44.083Z,11.54
2023-05-13T02:35:10.962Z,11.59
2023-05-13T02:37:37.612Z,11.58
2023-05-13T02:40:04.801Z,11.62
2023-05-13T02:42:31.387Z,11.61
2023-05-13T02:44:58.696Z,11.59
2023-05-13T02:47:25.416Z,11.58
2023-05-13T02:49:52.055Z,11.61
2023-05-13T02:52:18.664Z,11.58
2023-05-13T02:54:45.324Z,11.49
2023-05-13T02:57:11.930Z,11.52
2023-05-13T02:59:38.563Z,11.52
2023-05-13T03:02:05.497Z,11.54
2023-05-13T03:04:32.109Z,11.53
2023-05-13T03:06:58.968Z,11.22
2023-05-13T03:09:25.616Z,11.27
2023-05-13T03:11:52.361Z,11.16
2023-05-13T03:14:19.005Z,10.92
2023-05-13T03:16:45.618Z,10.90
2023-05-13T03:19:12.238Z,11.07
2023-05-13T03:21:39.182Z,11.03
2023-05-13T03:24:06.360Z,11.21
2023-05-13T03:26:33.054Z,11.31
2023-05-13T03:28:59.809Z,11.35
2023-05-13T03:31:26.643Z,11.46
2023-05-13T03:33:53.328Z,11.54
2023-05-13T03:36:19.918Z,11.58
2023-05-13T03:38:46.537Z,11.60
2023-05-13T03:41:13.361Z,11.45
2023-05-13T03:43:40.054Z,11.43
2023-05-13T03:46:06.643Z,11.48
2023-05-13T03:48:33.304Z,11.48
2023-05-13T03:50:59.921Z,11.46
2023-05-13T03:53:26.631Z,11.41
2023-05-13T03:55:53.514Z,11.42
2023-05-13T03:58:21.776Z,11.55
2023-05-13T04:00:49.117Z,11.64
2023-05-13T04:03:16.465Z,11.69
2023-05-13T04:05:43.793Z,11.64
2023-05-13T04:08:11.411Z,11.61
2023-05-13T04:10:38.191Z,11.61
2023-05-13T04:13:04.914Z,11.66
2023-05-13T04:15:31.872Z,11.67
2023-05-13T04:17:59.184Z,11.68
2023-05-13T04:20:26.171Z,11.71
2023-05-13T04:22:52.861Z,11.65
2023-05-13T04:25:19.511Z,11.64
2023-05-13T04:27:47.688Z,11.52
2023-05-13T04:30:14.476Z,11.63
2023-05-13T04:32:41.106Z,11.71
2023-05-13T04:35:08.617Z,11.65
2023-05-13T04:37:35.183Z,11.70
2023-05-13T04:40:01.879Z,11.73
2023-05-13T04:42:28.565Z,11.65
2023-05-13T04:44:55.310Z,11.67
2023-05-13T04:47:22.720Z,11.59
2023-05-13T04:49:49.154Z,11.50
2023-05-13T04:52:16.233Z,11.46
2023-05-13T04:54:42.823Z,11.57
2023-05-13T04:57:09.538Z,11.63
2023-05-13T04:59:36.168Z,11.60
2023-05-13T05:02:02.903Z,11.50
2023-05-13T05:04:29.580Z,11.58
2023-05-13T05:06:56.227Z,11.44
2023-05-13T05:09:22.937Z,11.53
2023-05-13T05:11:50.690Z,11.54
2023-05-13T05:14:17.582Z,11.73
2023-05-13T05:16:44.407Z,11.85
2023-05-13T05:19:11.098Z,11.92
2023-05-13T05:21:37.773Z,11.97
2023-05-13T05:24:05.551Z,12.13
2023-05-13T05:26:32.236Z,12.14
2023-05-13T05:28:58.939Z,12.20
2023-05-13T05:31:27.715Z,12.32
2023-05-13T05:33:56.406Z,12.50
2023-05-13T05:36:22.980Z,12.32
2023-05-13T05:38:49.578Z,12.21
2023-05-13T05:41:16.406Z,12.23
2023-05-13T05:43:43.069Z,12.43
2023-05-13T05:46:09.730Z,12.68
2023-05-13T05:48:36.494Z,13.09
2023-05-13T05:51:03.382Z,13.85
2023-05-13T05:53:30.015Z,14.24
2023-05-13T05:55:56.691Z,14.51
2023-05-13T05:58:23.545Z,14.76
2023-05-13T06:00:50.221Z,14.68
2023-05-13T06:03:17.027Z,14.91
2023-05-13T06:05:43.940Z,15.12
2023-05-13T06:08:10.640Z,15.53
2023-05-13T06:10:38.595Z,16.12
2023-05-13T06:13:05.582Z,16.83
2023-05-13T06:15:32.596Z,16.99
2023-05-13T06:17:59.367Z,17.63
2023-05-13T06:20:26.035Z,18.13
2023-05-13T06:22:52.681Z,18.13
2023-05-13T06:25:19.377Z,17.85
2023-05-13T06:27:46.015Z,18.41
2023-05-13T06:30:12.963Z,18.40
2023-05-13T06:32:42.890Z,18.07
2023-05-13T06:35:17.022Z,18.20
2023-05-13T06:37:43.672Z,18.73
2023-05-13T06:40:10.612Z,19.05
2023-05-13T06:42:40.499Z,18.57
2023-05-13T06:45:08.499Z,18.75
2023-05-13T06:47:35.950Z,19.19
2023-05-13T06:50:03.917Z,19.82
2023-05-13T06:52:31.637Z,20.20
2023-05-13T06:54:59.956Z,20.03
2023-05-13T06:57:38.771Z,19.79
2023-05-13T07:00:09.226Z,20.26
2023-05-13T07:02:35.879Z,20.48
2023-05-13T07:05:03.248Z,20.52
2023-05-13T07:07:29.757Z,19.97
2023-05-13T07:09:56.367Z,20.11
2023-05-13T07:12:23.164Z,20.36
2023-05-13T07:14:49.852Z,20.44
2023-05-13T07:17:17.444Z,20.17
2023-05-13T07:19:44.162Z,20.36
2023-05-13T07:22:11.516Z,20.60
2023-05-13T07:24:38.582Z,20.58
2023-05-13T07:27:05.424Z,20.62
2023-05-13T07:29:32.468Z,20.25
2023-05-13T07:32:04.023Z,19.94
2023-05-13T07:34:30.877Z,19.97
2023-05-13T07:36:58.094Z,20.27
2023-05-13T07:39:25.445Z,19.75
2023-05-13T07:41:51.980Z,20.07
2023-05-13T07:44:18.815Z,19.94
2023-05-13T07:46:45.531Z,19.55
2023-05-13T07:49:12.201Z,19.74
2023-05-13T07:51:38.825Z,19.97
2023-05-13T07:54:05.479Z,20.05
2023-05-13T07:56:32.150Z,19.95
2023-05-13T07:58:58.769Z,19.64
2023-05-13T08:01:25.739Z,19.32
2023-05-13T08:03:52.544Z,19.37
2023-05-13T08:06:19.700Z,19.27
2023-05-13T08:08:46.305Z,19.16
2023-05-13T08:11:13.684Z,18.91
2023-05-13T08:13:40.191Z,18.69
2023-05-13T08:16:09.987Z,18.85
2023-05-13T08:18:36.722Z,19.12
2023-05-13T08:21:03.562Z,19.19
2023-05-13T08:23:43.294Z,18.98
2023-05-13T08:26:11.741Z,19.09
2023-05-13T08:28:38.415Z,18.91
2023-05-13T08:31:05.213Z,19.06
2023-05-13T08:33:32.795Z,19.08
2023-05-13T08:36:00.686Z,18.95
2023-05-13T08:38:27.323Z,18.90
2023-05-13T08:40:54.153Z,19.22
2023-05-13T08:43:24.417Z,19.13
2023-05-13T08:45:53.454Z,19.22
2023-05-13T08:48:21.074Z,19.25
2023-05-13T08:50:48.512Z,19.27
2023-05-13T08:53:16.599Z,19.51
2023-05-13T08:55:43.195Z,19.57
2023-05-13T08:58:09.862Z,19.26
2023-05-13T09:00:37.143Z,19.04
2023-05-13T09:03:03.770Z,19.02
2023-05-13T09:05:31.981Z,18.81
2023-05-13T09:07:59.055Z,19.11
2023-05-13T09:10:25.661Z,19.47
2023-05-13T09:12:54.232Z,19.60
2023-05-13T09:15:23.353Z,19.52
2023-05-13T09:18:11.045Z,19.38
2023-05-13T09:20:37.800Z,19.45
2023-05-13T09:23:09.266Z,19.51
2023-05-13T09:25:37.648Z,19.55
2023-05-13T09:28:06.635Z,19.68
2023-05-13T09:30:43.890Z,19.99
2023-05-13T09:33:14.256Z,20.12
2023-05-13T09:35:53.076Z,20.15
2023-05-13T09:38:21.249Z,19.68
2023-05-13T09:40:58.785Z,19.91
2023-05-13T09:43:28.394Z,20.21
2023-05-13T09:45:56.950Z,20.42
2023-05-13T09:48:28.792Z,20.80
2023-05-13T09:50:57.937Z,20.94
2023-05-13T09:53:25.569Z,21.06
2023-05-13T09:55:53.730Z,20.93
2023-05-13T09:58:22.180Z,20.51
2023-05-13T10:00:49.196Z,20.68
2023-05-13T10:03:16.439Z,20.77
2023-05-13T10:05:43.786Z,20.89
2023-05-13T10:08:13.600Z,21.03
2023-05-13T10:10:41.713Z,20.90
2023-05-13T10:13:16.525Z,20.97
2023-05-13T10:15:53.227Z,21.10
2023-05-13T10:18:21.464Z,21.34
2023-05-13T10:20:53.700Z,21.55
2023-05-13T10:23:22.674Z,21.66
2023-05-13T10:25:50.595Z,21.76
2023-05-13T10:28:17.503Z,21.88
2023-05-13T10:30:45.231Z,21.70
2023-05-13T10:33:12.425Z,21.49
2023-05-13T10:35:43.289Z,21.12
2023-05-13T10:38:39.113Z,21.22
2023-05-13T10:41:19.029Z,21.01
2023-05-13T10:43:46.250Z,20.91
2023-05-13T10:46:13.623Z,20.84
2023-05-13T10:48:41.869Z,20.90
2023-05-13T10:51:09.689Z,20.88
2023-05-13T10:53:43.196Z,20.91
2023-05-13T10:56:10.136Z,20.97
2023-05-13T10:58:38.128Z,20.84
2023-05-13T11:01:14.582Z,20.67
2023-05-13T11:03:42.444Z,20.62
2023-05-13T11:06:27.162Z,20.68
2023-05-13T11:08:55.902Z,20.70
2023-05-13T11:11:26.552Z,20.82
2023-05-13T11:14:11.112Z,20.97
2023-05-13T11:16:38.233Z,20.94
2023-05-13T11:19:09.118Z,20.99
2023-05-13T11:21:39.672Z,20.91
2023-05-13T11:24:08.083Z,20.91
2023-05-13T11:26:56.297Z,21.04
2023-05-13T11:29:33.650Z,21.05
2023-05-13T11:32:01.834Z,21.28
2023-05-13T11:34:29.011Z,21.40
2023-05-13T11:37:07.687Z,21.41
2023-05-13T11:39:34.941Z,21.38
2023-05-13T11:42:06.643Z,21.21
2023-05-13T11:44:34.949Z,21.08
2023-05-13T11:47:06.290Z,21.28
2023-05-13T11:49:40.334Z,21.38
2023-05-13T11:52:06.987Z,21.36
2023-05-13T11:54:44.367Z,21.39
2023-05-13T11:57:25.359Z,21.41
2023-05-13T12:00:04.958Z,21.50
2023-05-13T12:02:37.445Z,21.53
2023-05-13T12:05:06.660Z,21.62
2023-05-13T12:07:35.064Z,21.45
2023-05-13T12:10:03.138Z,21.45
2023-05-13T12:12:31.365Z,21.37
2023-05-13T12:15:03.296Z,21.26
2023-05-13T12:17:31.313Z,21.19
2023-05-13T12:20:18.252Z,21.26
2023-05-13T12:22:44.754Z,21.40
2023-05-13T12:25:42.094Z,21.49
2023-05-13T12:28:09.596Z,21.64
2023-05-13T12:30:37.741Z,21.33
2023-05-13T12:33:08.145Z,21.50
2023-05-13T12:35:34.839Z,21.50
2023-05-13T12:38:03.466Z,21.44
2023-05-13T12:40:30.556Z,21.39
2023-05-13T12:43:01.654Z,21.30
2023-05-13T12:45:32.612Z,21.21
2023-05-13T12:48:00.847Z,21.22
2023-05-13T12:50:27.731Z,21.21
2023-05-13T12:52:54.442Z,21.53
2023-05-13T12:55:21.329Z,21.59
2023-05-13T12:58:03.044Z,21.50
2023-05-13T13:00:31.082Z,21.52
2023-05-13T13:02:58.172Z,21.69
2023-05-13T13:05:25.702Z,21.64
2023-05-13T13:07:52.455Z,21.68
2023-05-13T13:10:19.373Z,21.75
2023-05-13T13:12:46.215Z,21.68
2023-05-13T13:15:12.914Z,21.77
2023-05-13T13:17:39.698Z,21.73
2023-05-13T13:20:07.573Z,21.67
2023-05-13T13:22:37.150Z,21.70
2023-05-13T13:25:07.746Z,21.89
2023-05-13T13:27:35.098Z,21.91
2023-05-13T13:30:01.946Z,21.94
2023-05-13T13:32:28.781Z,21.88
2023-05-13T13:34:55.941Z,21.81
2023-05-13T13:37:22.640Z,21.91
2023-05-13T13:39:49.240Z,22.02
2023-05-13T13:42:15.838Z,22.15
2023-05-13T13:44:42.734Z,22.22
2023-05-13T13:47:09.938Z,22.34
2023-05-13T13:49:36.497Z,22.40
2023-05-13T13:52:03.167Z,22.37
2023-05-13T13:54:29.846Z,22.23
2023-05-13T13:56:56.491Z,21.95
2023-05-13T13:59:23.133Z,21.76
2023-05-13T14:01:49.872Z,21.72
2023-05-13T14:04:27.562Z,21.94
2023-05-13T14:06:57.727Z,22.07
2023-05-13T14:09:24.981Z,22.15
2023-05-13T14:11:51.807Z,22.23
2023-05-13T14:14:19.011Z,22.33
2023-05-13T14:16:45.646Z,22.32
2023-05-13T14:19:12.340Z,22.34
2023-05-13T14:21:39.216Z,22.29
2023-05-13T14:24:08.514Z,22.19
2023-05-13T14:26:35.362Z,22.13
2023-05-13T14:29:02.009Z,22.24
2023-05-13T14:31:28.715Z,21.98
2023-05-13T14:33:55.524Z,21.96
2023-05-13T14:36:22.995Z,22.12
2023-05-13T14:38:49.730Z,22.23
2023-05-13T14:41:20.012Z,22.23
2023-05-13T14:43:47.339Z,22.34
2023-05-13T14:46:14.301Z,22.41
2023-05-13T14:48:40.854Z,22.42
2023-05-13T14:51:07.643Z,22.25
2023-05-13T14:53:34.316Z,22.19
2023-05-13T14:56:00.999Z,22.19
2023-05-13T14:58:27.630Z,21.96
2023-05-13T15:00:55.112Z,21.80
2023-05-13T15:03:21.848Z,21.82
2023-05-13T15:05:50.146Z,21.77
2023-05-13T15:08:16.790Z,21.56
2023-05-13T15:10:43.429Z,21.45
2023-05-13T15:13:10.344Z,21.48
2023-05-13T15:15:37.032Z,21.57
2023-05-13T15:18:03.863Z,21.54
2023-05-13T15:20:31.717Z,21.58
2023-05-13T15:22:58.299Z,21.66
2023-05-13T15:25:24.947Z,21.63
2023-05-13T15:27:51.908Z,21.49
2023-05-13T15:30:18.549Z,21.41
2023-05-13T15:32:45.329Z,21.28
2023-05-13T15:35:11.991Z,21.29
2023-05-13T15:37:42.721Z,21.30
2023-05-13T15:40:09.794Z,21.27
2023-05-13T15:42:36.935Z,21.21
2023-05-13T15:45:03.748Z,21.16
2023-05-13T15:47:30.573Z,21.15
2023-05-13T15:49:57.361Z,21.14
2023-05-13T15:52:24.009Z,21.20
2023-05-13T15:54:50.622Z,21.18
2023-05-13T15:57:19.245Z,21.14
2023-05-13T15:59:45.992Z,21.15
2023-05-13T16:02:12.700Z,21.08
2023-05-13T16:04:39.500Z,20.98
2023-05-13T16:07:10.917Z,20.82
2023-05-13T16:09:38.572Z,20.68
2023-05-13T16:12:05.828Z,20.57
2023-05-13T16:14:32.601Z,20.33
2023-05-13T16:17:00.610Z,20.24
2023-05-13T16:19:27.249Z,20.19
2023-05-13T16:21:53.918Z,20.13
2023-05-13T16:24:20.594Z,20.15
2023-05-13T16:26:47.271Z,20.09
2023-05-13T16:29:14.074Z,20.03
2023-05-13T16:31:40.697Z,20.09
2023-05-13T16:34:07.400Z,20.09
2023-05-13T16:36:34.013Z,20.05
2023-05-13T16:39:00.667Z,20.03
2023-05-13T16:41:27.406Z,20.00
2023-05-13T16:43:53.996Z,20.03
2023-05-13T16:46:20.680Z,19.95
2023-05-13T16:48:47.307Z,19.90
2023-05-13T16:51:13.894Z,19.89
2023-05-13T16:53:40.465Z,19.81
2023-05-13T16:56:07.206Z,19.73
2023-05-13T16:58:33.867Z,19.72
2023-05-13T17:01:01.068Z,19.69
2023-05-13T17:03:27.941Z,19.64
2023-05-13T17:05:54.737Z,19.64
2023-05-13T17:08:24.607Z,19.58
2023-05-13T17:10:51.282Z,19.59
2023-05-13T17:13:19.766Z,19.61
2023-05-13T17:15:47.191Z,19.60
2023-05-13T17:18:13.701Z,19.56
2023-05-13T17:20:40.430Z,19.64
2023-05-13T17:23:07.197Z,19.55
2023-05-13T17:25:33.807Z,19.63
2023-05-13T17:28:00.347Z,19.46
2023-05-13T17:30:27.018Z,19.39
2023-05-13T17:32:53.713Z,19.39
2023-05-13T17:35:20.433Z,19.41
2023-05-13T17:37:47.082Z,19.26
2023-05-13T17:40:13.948Z,19.16
2023-05-13T17:42:40.607Z,19.24
2023-05-13T17:45:08.027Z,19.25
2023-05-13T17:47:34.784Z,19.24
2023-05-13T17:50:01.406Z,19.34
2023-05-13T17:52:28.054Z,19.29
2023-05-13T17:54:54.731Z,19.23
2023-05-13T17:57:21.421Z,19.19
2023-05-13T17:59:48.050Z,19.21
2023-05-13T18:02:14.841Z,19.28
2023-05-13T18:04:42.137Z,19.21
2023-05-13T18:07:09.098Z,19.21
2023-05-13T18:09:36.218Z,19.25
2023-05-13T18:12:03.371Z,19.28
2023-05-13T18:14:32.404Z,19.30
2023-05-13T18:16:59.675Z,19.27
2023-05-13T18:19:26.830Z,19.28
2023-05-13T18:21:53.565Z,19.31
2023-05-13T18:24:20.156Z,19.29
2023-05-13T18:26:46.754Z,19.27
2023-05-13T18:29:13.653Z,19.08
2023-05-13T18:31:40.338Z,18.89
2023-05-13T18:34:07.085Z,18.89
2023-05-13T18:36:33.716Z,18.67
2023-05-13T18:39:00.483Z,18.77
2023-05-13T18:41:27.098Z,18.72
2023-05-13T18:43:53.792Z,18.65
2023-05-13T18:46:20.851Z,18.61
2023-05-13T18:48:47.466Z,18.71
2023-05-13T18:51:14.651Z,18.76
2023-05-13T18:53:41.441Z,18.72
2023-05-13T18:56:08.090Z,18.66
2023-05-13T18:58:34.736Z,18.61
2023-05-13T19:01:02.107Z,18.62
2023-05-13T19:03:28.878Z,18.56
2023-05-13T19:05:55.645Z,18.53
2023-05-13T19:08:22.576Z,18.49
2023-05-13T19:10:49.878Z,18.53
2023-05-13T19:13:19.765Z,18.52
2023-05-13T19:15:46.673Z,18.55
2023-05-13T19:18:13.408Z,18.47
2023-05-13T19:20:40.373Z,18.51
2023-05-13T19:23:07.068Z,18.53
2023-05-13T19:25:33.699Z,18.36
2023-05-13T19:28:01.210Z,18.41
2023-05-13T19:30:28.475Z,18.38
2023-05-13T19:32:55.110Z,18.37
2023-05-13T19:35:23.471Z,18.36
2023-05-13T19:37:50.469Z,18.40
2023-05-13T19:40:17.272Z,18.37
2023-05-13T19:42:43.963Z,18.38
2023-05-13T19:45:11.087Z,18.37
2023-05-13T19:47:38.424Z,18.33
2023-05-13T19:50:05.598Z,18.35
2023-05-13T19:52:32.217Z,18.17
2023-05-13T19:54:58.854Z,18.05
2023-05-13T19:57:27.510Z,17.95
2023-05-13T19:59:56.047Z,17.90
2023-05-13T20:02:22.746Z,17.83
2023-05-13T20:04:49.602Z,17.66
2023-05-13T20:07:17.502Z,17.50
2023-05-13T20:09:44.168Z,17.48
2023-05-13T20:12:10.843Z,17.53
2023-05-13T20:14:49.299Z,17.48
2023-05-13T20:17:18.394Z,17.39
2023-05-13T20:19:48.940Z,17.44
2023-05-13T20:22:17.039Z,17.51
2023-05-13T20:24:46.459Z,17.61
2023-05-13T20:27:13.140Z,17.60
2023-05-13T20:29:43.409Z,17.57
2023-05-13T20:32:10.489Z,17.68
2023-05-13T20:34:37.483Z,17.75
2023-05-13T20:37:04.757Z,17.86
2023-05-13T20:39:31.494Z,17.87
2023-05-13T20:41:58.319Z,17.95
2023-05-13T20:44:25.138Z,17.99
2023-05-13T20:46:51.798Z,18.04
2023-05-13T20:49:18.967Z,17.96
2023-05-13T20:51:48.276Z,18.00
2023-05-13T20:54:15.544Z,18.08
2023-05-13T20:56:42.160Z,17.99
2023-05-13T20:59:09.072Z,17.94
2023-05-13T21:01:36.065Z,17.86
2023-05-13T21:04:06.102Z,17.83
2023-05-13T21:06:33.177Z,17.83
2023-05-13T21:08:59.877Z,17.85
2023-05-13T21:11:26.630Z,17.83
2023-05-13T21:13:53.222Z,17.64
2023-05-13T21:16:19.938Z,17.57
2023-05-13T21:18:46.679Z,17.48
2023-05-13T21:21:13.361Z,17.44
2023-05-13T21:23:40.826Z,17.33
2023-05-13T21:26:07.454Z,17.39
2023-05-13T21:28:34.130Z,17.46
2023-05-13T21:31:00.908Z,17.35
2023-05-13T21:33:28.771Z,17.38
2023-05-13T21:35:55.512Z,17.39
2023-05-13T21:38:22.490Z,17.41
2023-05-13T21:40:49.420Z,17.40
2023-05-13T21:43:16.100Z,17.47
2023-05-13T21:45:42.761Z,17.55
2023-05-13T21:48:09.471Z,17.65
2023-05-13T21:50:36.163Z,17.69
2023-05-13T21:53:02.804Z,17.68
2023-05-13T21:55:33.963Z,17.56
2023-05-13T21:58:02.110Z,17.66
2023-05-13T22:00:28.731Z,17.70
2023-05-13T22:02:57.309Z,17.67
2023-05-13T22:05:24.106Z,17.57
2023-05-13T22:07:51.261Z,17.43
2023-05-13T22:10:17.999Z,17.45
2023-05-13T22:12:44.592Z,17.37
2023-05-13T22:15:11.546Z,17.37
2023-05-13T22:17:38.223Z,17.30
2023-05-13T22:20:05.977Z,17.27
2023-05-13T22:22:32.574Z,17.36
2023-05-13T22:24:59.284Z,17.39
2023-05-13T22:27:25.892Z,17.35
2023-05-13T22:29:52.449Z,17.27
2023-05-13T22:32:19.030Z,16.98
2023-05-13T22:34:45.657Z,16.89
2023-05-13T22:37:14.324Z,16.84
2023-05-13T22:39:41.039Z,16.80
2023-05-13T22:42:07.810Z,16.79
2023-05-13T22:44:35.034Z,16.84
2023-05-13T22:47:01.600Z,16.86
2023-05-13T22:49:28.236Z,16.82
2023-05-13T22:51:55.013Z,16.79
2023-05-13T22:54:21.639Z,16.71
2023-05-13T22:56:48.175Z,16.60
2023-05-13T22:59:14.768Z,16.64
2023-05-13T23:01:41.764Z,16.60
2023-05-13T23:04:08.510Z,16.48
2023-05-13T23:06:35.198Z,16.62
2023-05-13T23:09:02.165Z,16.51
2023-05-13T23:11:28.837Z,16.57
2023-05-13T23:13:55.499Z,16.64
2023-05-13T23:16:22.199Z,16.61
2023-05-13T23:18:48.861Z,16.61
2023-05-13T23:21:15.703Z,16.48
2023-05-13T23:23:42.435Z,16.49
2023-05-13T23:26:09.076Z,16.55
2023-05-13T23:28:35.801Z,16.57
2023-05-13T23:31:02.481Z,16.59
2023-05-13T23:33:29.101Z,16.50
2023-05-13T23:35:56.327Z,16.47
2023-05-13T23:38:23.302Z,16.48
2023-05-13T23:40:49.949Z,16.42
2023-05-13T23:43:16.664Z,16.27
2023-05-13T23:45:43.425Z,16.09
2023-05-13T23:48:10.112Z,16.10
2023-05-13T23:50:37.223Z,16.03
2023-05-13T23:53:03.915Z,16.07
2023-05-13T23:55:30.502Z,16.06
2023-05-13T23:57:57.120Z,15.94
